F/V Barracuda II — FMIF — position and weather

sailwx.info

Track history (hours):
 
Tides and Currents Weather Stations Pressure Air Temp Water Temp Dewpoint Dewpoint Depression Visibility Wind Speed Wind Dir Waves Ship Positions

F/V Barracuda II

Last reported at 2015-Mar-26 14:33 UTC. Time now 2015-Mar-27 19:11 UTC.
Position N 43°29' E 004°00'.

Length 23 m.

Type: Fishing. MMSI: 228236800.

Date/timePositionNaut miles runAvg speedWind from/ knotsBaromVisibWave heightAir tempDewpointWater temp
2015-Mar-26 14:33N 43°29' E 004°00'5 5.0
2015-Mar-26 13:30N 43°24' E 004°02'4 3.9
2015-Mar-26 12:28N 43°22' E 004°07'4 4.0
2015-Mar-26 11:27N 43°21' E 004°12'4 3.9
2015-Mar-26 10:29N 43°20' E 004°17'2 2.5
2015-Mar-26 09:32N 43°20' E 004°20'5 1.6
2015-Mar-26 06:26N 43°24' E 004°22'13 3.4
2015-Mar-26 02:25N 43°29' E 004°05'8 0.6
2015-Mar-25 13:24N 43°22' E 004°10'4 3.5
2015-Mar-25 12:07N 43°21' E 004°04'4 3.9
2015-Mar-25 11:11N 43°23' E 003°60'3 3.6
2015-Mar-25 10:20N 43°23' E 004°04'10 3.4
2015-Mar-25 07:29N 43°20' E 004°16'14 0.9
2015-Mar-24 16:18N 43°32' E 004°07'16 7.5
2015-Mar-24 14:08N 43°17' E 004°17'3 3.9
2015-Mar-24 13:27N 43°15' E 004°20'4 3.8
2015-Mar-24 12:24N 43°13' E 004°25'4 3.3
2015-Mar-24 11:19N 43°12' E 004°29'4 4.0
2015-Mar-24 10:24N 43°12' E 004°34'4 4.0
2015-Mar-24 09:23N 43°13' E 004°40'4 3.7
2015-Mar-24 08:26N 43°10' E 004°38'4 3.2
2015-Mar-24 07:06N 43°09' E 004°32'2 3.7
2015-Mar-24 06:33N 43°09' E 004°29'4 3.9
2015-Mar-24 05:32N 43°12' E 004°25'24 1.6
2015-Mar-23 15:11N 43°31' E 004°06'6 9.2
2015-Mar-23 14:33N 43°26' E 004°10'7 5.0
2015-Mar-23 13:08N 43°20' E 004°15'4 4.0
2015-Mar-23 12:08N 43°18' E 004°20'2 4.0
2015-Mar-23 11:33N 43°18' E 004°23'4 3.7
2015-Mar-23 10:21N 43°18' E 004°29'2 1.9
2015-Mar-23 09:23N 43°19' E 004°31'21 0.5
2015-Mar-21 14:30N 43°32' E 004°08'3 0.1
2015-Mar-20 15:23N 43°30' E 004°06'1210.0
2015-Mar-20 14:11N 43°20' E 004°16'6 8.2
2015-Mar-20 13:27N 43°15' E 004°20'4 3.5
2015-Mar-20 12:24N 43°12' E 004°23'3 3.9
2015-Mar-20 11:33N 43°09' E 004°25'2 0.4
2015-Mar-20 06:20N 43°08' E 004°28'27 1.8
2015-Mar-19 15:11N 43°30' E 004°06'913.8
2015-Mar-19 14:32N 43°22' E 004°13'9 7.5
2015-Mar-19 13:18N 43°15' E 004°20'3 3.3
2015-Mar-19 12:32N 43°13' E 004°22'5 4.0
2015-Mar-19 11:20N 43°09' E 004°27'3 3.9
2015-Mar-19 10:31N 43°08' E 004°31'5 3.9
2015-Mar-19 09:16N 43°09' E 004°38'1 0.6
2015-Mar-19 08:14N 43°09' E 004°37'3 4.0
2015-Mar-19 07:33N 43°09' E 004°33'5 4.0
2015-Mar-19 06:20N 43°10' E 004°27'22 5.9
2015-Mar-19 02:33N 43°28' E 004°08'1 0.1
2015-Mar-18 15:23N 43°27' E 004°09'8 8.4
2015-Mar-18 14:23N 43°20' E 004°16'3 3.9
2015-Mar-18 13:33N 43°18' E 004°19'4 3.8
2015-Mar-18 12:31N 43°17' E 004°24'4 3.8
2015-Mar-18 11:32N 43°17' E 004°29'3 2.9
2015-Mar-18 10:27N 43°15' E 004°33'3 3.5
2015-Mar-18 09:33N 43°13' E 004°35'4 3.1
2015-Mar-18 08:21N 43°16' E 004°37'17 3.6
2015-Mar-18 03:32N 43°24' E 004°15'10 7.2
2015-Mar-18 02:11N 43°31' E 004°07'7 0.6
2015-Mar-17 15:11N 43°25' E 004°08'5 8.6
2015-Mar-17 14:33N 43°20' E 004°11'5 3.6
2015-Mar-17 13:17N 43°17' E 004°16'4 3.9
2015-Mar-17 12:23N 43°16' E 004°20'4 4.0
2015-Mar-17 11:25N 43°14' E 004°25'3 3.1
2015-Mar-17 10:30N 43°13' E 004°28'3 2.7
2015-Mar-17 09:24N 43°12' E 004°32'4 3.7
2015-Mar-17 08:13N 43°17' E 004°33'23 1.4
2015-Mar-16 15:21N 43°29' E 004°06'  
Track history (hours):
 
Tides and Currents Weather Stations Pressure Air Temp Water Temp Dewpoint Dewpoint Depression Visibility Wind Speed Wind Dir Waves Ship Positions

F/V Barracuda II

Last reported at 2015-Mar-26 14:33 UTC. Time now 2015-Mar-27 19:11 UTC.
Position N 43°29' E 004°00'.

Length 23 m.

Type: Fishing. MMSI: 228236800.

Date/timePositionNaut miles runAvg speedWind from/ knotsBaromVisibWave heightAir tempDewpointWater temp
2015-Mar-26 14:33N 43°29' E 004°00'5 5.0
2015-Mar-26 13:30N 43°24' E 004°02'4 3.9
2015-Mar-26 12:28N 43°22' E 004°07'4 4.0
2015-Mar-26 11:27N 43°21' E 004°12'4 3.9
2015-Mar-26 10:29N 43°20' E 004°17'2 2.5
2015-Mar-26 09:32N 43°20' E 004°20'5 1.6
2015-Mar-26 06:26N 43°24' E 004°22'13 3.4
2015-Mar-26 02:25N 43°29' E 004°05'8 0.6
2015-Mar-25 13:24N 43°22' E 004°10'4 3.5
2015-Mar-25 12:07N 43°21' E 004°04'4 3.9
2015-Mar-25 11:11N 43°23' E 003°60'3 3.6
2015-Mar-25 10:20N 43°23' E 004°04'10 3.4
2015-Mar-25 07:29N 43°20' E 004°16'14 0.9
2015-Mar-24 16:18N 43°32' E 004°07'16 7.5
2015-Mar-24 14:08N 43°17' E 004°17'3 3.9
2015-Mar-24 13:27N 43°15' E 004°20'4 3.8
2015-Mar-24 12:24N 43°13' E 004°25'4 3.3
2015-Mar-24 11:19N 43°12' E 004°29'4 4.0
2015-Mar-24 10:24N 43°12' E 004°34'4 4.0
2015-Mar-24 09:23N 43°13' E 004°40'4 3.7
2015-Mar-24 08:26N 43°10' E 004°38'4 3.2
2015-Mar-24 07:06N 43°09' E 004°32'2 3.7
2015-Mar-24 06:33N 43°09' E 004°29'4 3.9
2015-Mar-24 05:32N 43°12' E 004°25'24 1.6
2015-Mar-23 15:11N 43°31' E 004°06'6 9.2
2015-Mar-23 14:33N 43°26' E 004°10'7 5.0
2015-Mar-23 13:08N 43°20' E 004°15'4 4.0
2015-Mar-23 12:08N 43°18' E 004°20'2 4.0
2015-Mar-23 11:33N 43°18' E 004°23'4 3.7
2015-Mar-23 10:21N 43°18' E 004°29'2 1.9
2015-Mar-23 09:23N 43°19' E 004°31'21 0.5
2015-Mar-21 14:30N 43°32' E 004°08'3 0.1
2015-Mar-20 15:23N 43°30' E 004°06'1210.0
2015-Mar-20 14:11N 43°20' E 004°16'6 8.2
2015-Mar-20 13:27N 43°15' E 004°20'4 3.5
2015-Mar-20 12:24N 43°12' E 004°23'3 3.9
2015-Mar-20 11:33N 43°09' E 004°25'2 0.4
2015-Mar-20 06:20N 43°08' E 004°28'27 1.8
2015-Mar-19 15:11N 43°30' E 004°06'913.8
2015-Mar-19 14:32N 43°22' E 004°13'9 7.5
2015-Mar-19 13:18N 43°15' E 004°20'3 3.3
2015-Mar-19 12:32N 43°13' E 004°22'5 4.0
2015-Mar-19 11:20N 43°09' E 004°27'3 3.9
2015-Mar-19 10:31N 43°08' E 004°31'5 3.9
2015-Mar-19 09:16N 43°09' E 004°38'1 0.6
2015-Mar-19 08:14N 43°09' E 004°37'3 4.0
2015-Mar-19 07:33N 43°09' E 004°33'5 4.0
2015-Mar-19 06:20N 43°10' E 004°27'22 5.9
2015-Mar-19 02:33N 43°28' E 004°08'1 0.1
2015-Mar-18 15:23N 43°27' E 004°09'8 8.4
2015-Mar-18 14:23N 43°20' E 004°16'3 3.9
2015-Mar-18 13:33N 43°18' E 004°19'4 3.8
2015-Mar-18 12:31N 43°17' E 004°24'4 3.8
2015-Mar-18 11:32N 43°17' E 004°29'3 2.9
2015-Mar-18 10:27N 43°15' E 004°33'3 3.5
2015-Mar-18 09:33N 43°13' E 004°35'4 3.1
2015-Mar-18 08:21N 43°16' E 004°37'17 3.6
2015-Mar-18 03:32N 43°24' E 004°15'10 7.2
2015-Mar-18 02:11N 43°31' E 004°07'7 0.6
2015-Mar-17 15:11N 43°25' E 004°08'5 8.6
2015-Mar-17 14:33N 43°20' E 004°11'5 3.6
2015-Mar-17 13:17N 43°17' E 004°16'4 3.9
2015-Mar-17 12:23N 43°16' E 004°20'4 4.0
2015-Mar-17 11:25N 43°14' E 004°25'3 3.1
2015-Mar-17 10:30N 43°13' E 004°28'3 2.7
2015-Mar-17 09:24N 43°12' E 004°32'4 3.7
2015-Mar-17 08:13N 43°17' E 004°33'23 1.4
2015-Mar-16 15:21N 43°29' E 004°06'  

Dump ship's entire track history